Time;durP1;ratioP1;P1;durP2;ratioP2;P2;SDS_P1;SDS_P2;PMS_P1;PMS_P2;Temp;Humidity;BMP_temperature;BMP_pressure;BME280_temperature;BME280_humidity;BME280_pressure;Samples;Min_cycle;Max_cycle;Signal;HPM_P1;HPM_P2
2023/08/21 00:01:41;;;;;;;6.33;4.37;;;23.50;99.90;;;;;;5027996;28;20466;-66
2023/08/21 00:04:08;;;;;;;9.37;3.90;;;23.50;99.90;;;;;;5028363;28;20490;-65
2023/08/21 00:06:35;;;;;;;5.83;3.87;;;23.40;99.90;;;;;;5026354;28;20483;-66
2023/08/21 00:09:03;;;;;;;4.23;3.73;;;23.40;99.90;;;;;;5027253;28;20564;-65
2023/08/21 00:11:30;;;;;;;5.33;4.27;;;23.40;99.90;;;;;;5025186;28;21083;-66
2023/08/21 00:13:57;;;;;;;3.50;3.07;;;23.30;99.90;;;;;;5025304;28;20575;-65
2023/08/21 00:16:26;;;;;;;4.53;3.70;;;23.30;99.90;;;;;;5027596;28;20489;-66
2023/08/21 00:18:53;;;;;;;7.13;4.20;;;23.20;99.90;;;;;;5032083;28;20471;-66
2023/08/21 00:21:20;;;;;;;3.90;3.50;;;23.20;99.90;;;;;;5031052;28;20960;-65
2023/08/21 00:23:48;;;;;;;6.17;4.13;;;23.10;99.90;;;;;;5029693;28;20935;-66
2023/08/21 00:26:15;;;;;;;8.17;4.03;;;23.20;99.90;;;;;;5027699;28;20875;-66
2023/08/21 00:28:41;;;;;;;5.07;3.30;;;23.10;99.90;;;;;;5029212;28;20508;-66
2023/08/21 00:31:08;;;;;;;6.13;4.30;;;23.10;99.90;;;;;;5029235;28;20568;-66
2023/08/21 00:33:38;;;;;;;7.53;4.40;;;22.90;99.90;;;;;;5030377;28;20475;-66
2023/08/21 00:36:05;;;;;;;4.47;3.60;;;22.90;99.90;;;;;;5017397;28;20482;-66
2023/08/21 00:38:32;;;;;;;6.20;3.50;;;22.90;99.90;;;;;;5031881;28;20487;-67
2023/08/21 00:40:59;;;;;;;13.93;4.10;;;22.80;99.90;;;;;;5030152;28;20539;-66
2023/08/21 00:43:26;;;;;;;6.20;3.87;;;22.80;99.90;;;;;;5027505;28;20486;-66
2023/08/21 00:45:53;;;;;;;4.13;3.30;;;22.70;99.90;;;;;;5030699;28;20471;-66
2023/08/21 00:48:20;;;;;;;5.73;3.23;;;22.70;99.90;;;;;;5029694;28;21056;-66
2023/08/21 00:50:49;;;;;;;5.27;3.63;;;22.70;99.90;;;;;;5024549;28;20482;-65
2023/08/21 00:53:16;;;;;;;12.33;3.90;;;22.70;99.90;;;;;;5040572;28;21061;-66
2023/08/21 00:55:44;;;;;;;6.40;4.10;;;22.60;99.90;;;;;;5030521;28;20562;-70
2023/08/21 00:58:12;;;;;;;10.03;4.30;;;22.70;99.90;;;;;;5028738;28;20579;-70
2023/08/21 01:00:40;;;;;;;8.80;4.40;;;22.60;99.90;;;;;;5030566;28;20484;-66
2023/08/21 01:03:07;;;;;;;5.70;3.80;;;22.70;99.90;;;;;;5029888;28;20480;-67
2023/08/21 01:05:36;;;;;;;8.20;4.20;;;22.70;99.90;;;;;;5022815;28;20532;-66
2023/08/21 01:08:09;;;;;;;5.20;4.50;;;22.70;99.90;;;;;;5041534;28;20595;-67
2023/08/21 01:10:46;;;;;;;5.07;4.30;;;22.70;99.90;;;;;;5029995;28;20479;-67
2023/08/21 01:13:23;;;;;;;4.50;4.00;;;22.70;99.90;;;;;;5026983;28;20877;-67
2023/08/21 01:15:53;;;;;;;3.07;2.77;;;22.70;99.90;;;;;;5029048;28;21117;-66
2023/08/21 01:18:21;;;;;;;6.73;2.93;;;22.60;99.90;;;;;;5029392;28;21033;-67
2023/08/21 01:20:49;;;;;;;4.30;3.50;;;22.60;99.90;;;;;;5028223;28;20466;-67
2023/08/21 01:23:33;;;;;;;8.83;3.63;;;22.50;99.90;;;;;;5029159;28;20814;-68
2023/08/21 01:26:00;;;;;;;4.30;3.33;;;22.40;99.90;;;;;;5029598;28;20449;-67
2023/08/21 01:28:27;;;;;;;6.47;3.27;;;22.40;99.90;;;;;;5029407;28;20901;-67
2023/08/21 01:31:04;;;;;;;6.00;3.43;;;22.30;99.90;;;;;;5029815;28;20681;-67
2023/08/21 01:33:34;;;;;;;4.10;3.17;;;22.30;99.90;;;;;;5029140;28;20494;-67
2023/08/21 01:36:05;;;;;;;8.13;3.37;;;22.20;99.90;;;;;;5034450;28;20455;-67
2023/08/21 01:38:35;;;;;;;5.50;3.53;;;22.10;99.90;;;;;;5028035;28;21137;-67
2023/08/21 01:41:02;;;;;;;3.63;3.20;;;22.10;99.90;;;;;;5029450;28;20467;-67
2023/08/21 01:43:29;;;;;;;6.40;3.77;;;22.10;99.90;;;;;;5028565;28;20446;-67
2023/08/21 01:45:56;;;;;;;7.20;3.60;;;;;;;;;;5036549;28;20488;-67
2023/08/21 01:48:23;;;;;;;5.43;3.57;;;22.20;99.90;;;;;;5029049;28;20485;-67
2023/08/21 01:50:50;;;;;;;7.10;3.80;;;22.20;99.90;;;;;;5030674;28;20523;-67
2023/08/21 01:53:17;;;;;;;5.53;3.70;;;22.20;99.90;;;;;;5040381;28;21052;-67
2023/08/21 01:55:46;;;;;;;7.60;3.87;;;22.20;99.90;;;;;;5036126;28;20559;-66
2023/08/21 01:58:13;;;;;;;9.43;4.30;;;;;;;;;;5034794;28;20933;-67
2023/08/21 02:00:40;;;;;;;7.03;4.20;;;22.20;99.90;;;;;;5033562;28;20874;-67
2023/08/21 02:03:07;;;;;;;6.97;4.00;;;22.10;99.90;;;;;;5035355;28;21254;-66
2023/08/21 02:05:39;;;;;;;6.67;3.70;;;22.10;99.90;;;;;;5036689;28;20915;-66
2023/08/21 02:08:07;;;;;;;3.27;2.83;;;22.10;99.90;;;;;;5035860;28;20498;-66
2023/08/21 02:10:34;;;;;;;4.13;3.30;;;22.00;99.90;;;;;;5027407;28;20859;-66
2023/08/21 02:13:02;;;;;;;4.23;3.47;;;22.00;99.90;;;;;;5031402;28;20562;-67
2023/08/21 02:15:29;;;;;;;5.93;3.77;;;21.90;99.90;;;;;;5032421;28;20515;-66
2023/08/21 02:17:56;;;;;;;5.47;4.93;;;21.90;99.90;;;;;;5034901;28;20842;-66
2023/08/21 02:20:23;;;;;;;3.90;3.30;;;21.90;99.90;;;;;;5031156;28;21155;-66
2023/08/21 02:22:50;;;;;;;4.20;3.47;;;21.90;99.90;;;;;;5035998;28;20488;-67
2023/08/21 02:25:17;;;;;;;3.70;3.23;;;21.90;99.90;;;;;;5035221;28;20803;-67
2023/08/21 02:27:44;;;;;;;5.73;4.17;;;21.90;99.90;;;;;;5026422;28;20533;-66
2023/08/21 02:30:13;;;;;;;6.20;3.77;;;21.90;99.90;;;;;;5016824;28;20936;-66
2023/08/21 02:32:40;;;;;;;5.70;3.90;;;;;;;;;;5036029;28;20489;-67
2023/08/21 02:35:08;;;;;;;4.27;3.83;;;21.80;99.90;;;;;;5032935;28;20476;-66
2023/08/21 02:37:38;;;;;;;3.87;3.40;;;21.70;99.90;;;;;;5034250;28;20484;-66
2023/08/21 02:40:08;;;;;;;6.33;3.30;;;21.70;99.90;;;;;;5032706;28;21010;-66
2023/08/21 02:42:35;;;;;;;6.30;5.23;;;21.60;99.90;;;;;;5035280;28;20475;-66
2023/08/21 02:45:07;;;;;;;6.03;4.17;;;21.60;99.90;;;;;;5026972;28;20487;-66
2023/08/21 02:47:36;;;;;;;6.00;3.97;;;21.50;99.90;;;;;;5030021;28;20511;-66
2023/08/21 02:50:04;;;;;;;5.23;4.13;;;;;;;;;;5036254;28;20488;-66
2023/08/21 02:52:31;;;;;;;7.03;3.77;;;21.50;99.90;;;;;;5035326;28;20495;-65
2023/08/21 02:54:58;;;;;;;13.20;5.27;;;21.50;99.90;;;;;;5030796;28;21312;-66
2023/08/21 02:57:25;;;;;;;9.10;4.50;;;21.50;99.90;;;;;;5033329;28;21073;-65
2023/08/21 02:59:52;;;;;;;12.90;4.60;;;21.40;99.90;;;;;;5035527;28;20559;-66
2023/08/21 03:02:19;;;;;;;9.57;4.50;;;21.30;99.90;;;;;;5031239;28;20558;-66
2023/08/21 03:04:47;;;;;;;4.20;3.47;;;21.30;99.90;;;;;;5032334;28;20571;-66
2023/08/21 03:07:14;;;;;;;12.40;3.70;;;21.30;99.90;;;;;;5016219;28;20484;-66
2023/08/21 03:09:42;;;;;;;4.20;3.67;;;21.30;99.90;;;;;;5033118;28;20475;-67
2023/08/21 03:12:09;;;;;;;5.50;3.20;;;21.30;99.90;;;;;;5030950;28;20484;-67
2023/08/21 03:14:36;;;;;;;5.70;3.07;;;21.30;99.90;;;;;;5034244;28;21305;-67
2023/08/21 03:17:03;;;;;;;4.40;3.63;;;21.20;99.90;;;;;;5035602;28;20572;-71
2023/08/21 03:19:30;;;;;;;3.83;3.13;;;21.20;99.90;;;;;;5032489;28;20586;-73
2023/08/21 03:21:59;;;;;;;6.60;4.13;;;21.20;99.90;;;;;;5035029;28;20536;-69
2023/08/21 03:24:26;;;;;;;8.43;4.83;;;21.20;99.90;;;;;;5035836;28;20476;-71
2023/08/21 03:26:53;;;;;;;11.57;3.27;;;21.20;99.90;;;;;;5029879;28;20575;-71
2023/08/21 03:29:19;;;;;;;9.70;5.03;;;21.20;99.90;;;;;;5030823;28;20568;-71
2023/08/21 03:31:49;;;;;;;6.50;4.20;;;21.20;99.90;;;;;;5037270;28;20483;-71
2023/08/21 03:34:15;;;;;;;4.13;3.60;;;21.20;99.90;;;;;;5035511;28;21472;-71
2023/08/21 03:36:42;;;;;;;6.17;3.23;;;21.30;99.90;;;;;;5032916;28;20498;-69
2023/08/21 03:39:11;;;;;;;5.43;3.10;;;21.20;99.90;;;;;;5027903;28;20759;-71
2023/08/21 03:41:38;;;;;;;11.43;6.30;;;21.20;99.90;;;;;;5034023;28;20505;-69
2023/08/21 03:44:05;;;;;;;4.30;2.93;;;21.10;99.90;;;;;;5030490;28;20909;-71
2023/08/21 03:46:33;;;;;;;4.47;3.10;;;;;;;;;;5029924;28;20481;-70
2023/08/21 03:48:59;;;;;;;4.87;3.00;;;21.10;99.90;;;;;;5030714;28;20563;-69
2023/08/21 03:51:26;;;;;;;6.13;2.93;;;21.10;99.90;;;;;;5032272;28;20575;-68
2023/08/21 03:53:54;;;;;;;3.17;2.87;;;21.00;99.90;;;;;;5032015;28;20769;-69
2023/08/21 03:56:23;;;;;;;4.20;3.50;;;21.10;99.90;;;;;;5030651;28;20506;-70
2023/08/21 03:58:50;;;;;;;7.23;3.77;;;21.00;99.90;;;;;;5014339;28;20486;-71
2023/08/21 04:01:16;;;;;;;8.57;3.33;;;21.00;99.90;;;;;;5028075;28;20480;-68
2023/08/21 04:03:43;;;;;;;3.90;3.60;;;21.10;99.90;;;;;;5028602;28;20469;-68
2023/08/21 04:06:10;;;;;;;4.60;3.40;;;21.10;99.90;;;;;;5032566;28;20480;-70
2023/08/21 04:08:37;;;;;;;4.80;3.27;;;21.10;99.90;;;;;;5027717;28;20513;-70
2023/08/21 04:11:05;;;;;;;4.77;3.33;;;21.10;99.90;;;;;;5033136;28;20509;-70
2023/08/21 04:13:33;;;;;;;4.47;3.40;;;21.10;99.90;;;;;;5033097;28;20514;-70
2023/08/21 04:16:00;;;;;;;4.97;3.13;;;;;;;;;;5032974;28;21230;-68
2023/08/21 04:18:27;;;;;;;4.47;3.00;;;21.00;99.90;;;;;;5026138;28;21073;-69
2023/08/21 04:20:54;;;;;;;4.67;3.10;;;21.00;99.90;;;;;;5040972;28;20562;-70
2023/08/21 04:23:21;;;;;;;3.13;2.70;;;20.90;99.90;;;;;;5030322;28;20475;-68
2023/08/21 04:25:48;;;;;;;2.97;2.30;;;20.90;99.90;;;;;;5018565;28;20837;-68
2023/08/21 04:28:15;;;;;;;2.80;2.33;;;20.90;99.90;;;;;;5032509;28;20838;-66
2023/08/21 04:30:43;;;;;;;9.03;3.20;;;20.80;99.90;;;;;;5033168;28;20568;-66
2023/08/21 04:33:10;;;;;;;3.73;3.33;;;20.80;99.90;;;;;;5030761;28;20480;-66
2023/08/21 04:35:38;;;;;;;8.30;2.67;;;20.80;99.90;;;;;;5033706;28;20484;-65
2023/08/21 04:38:06;;;;;;;5.30;3.40;;;20.80;99.90;;;;;;5033223;28;20804;-67
2023/08/21 04:40:33;;;;;;;5.73;3.30;;;20.80;99.90;;;;;;5034151;28;20483;-66
2023/08/21 04:43:00;;;;;;;8.23;3.53;;;20.80;99.90;;;;;;5031401;28;20474;-66
2023/08/21 04:45:27;;;;;;;5.80;3.77;;;20.80;99.90;;;;;;5030814;28;20464;-66
2023/08/21 04:47:55;;;;;;;4.20;3.40;;;20.80;99.90;;;;;;5035230;28;21052;-66
2023/08/21 04:50:22;;;;;;;4.70;4.30;;;20.80;99.90;;;;;;5035070;28;20476;-66
2023/08/21 04:52:50;;;;;;;18.23;4.07;;;20.80;99.90;;;;;;5028574;28;20476;-67
2023/08/21 04:55:17;;;;;;;3.03;2.63;;;;;;;;;;5025194;28;20944;-67
2023/08/21 04:57:44;;;;;;;3.77;2.60;;;20.70;99.90;;;;;;5030411;28;20483;-66
2023/08/21 05:00:12;;;;;;;7.80;3.10;;;20.70;99.90;;;;;;5030395;28;20578;-66
2023/08/21 05:02:39;;;;;;;10.87;3.53;;;20.70;99.90;;;;;;5029885;28;20490;-66
2023/08/21 05:05:09;;;;;;;4.77;2.80;;;20.70;99.90;;;;;;5036424;28;20484;-66
2023/08/21 05:07:36;;;;;;;3.77;2.83;;;20.70;99.90;;;;;;5036433;28;20486;-66
2023/08/21 05:10:04;;;;;;;9.20;3.40;;;20.70;99.90;;;;;;5034173;28;20491;-67
2023/08/21 05:12:31;;;;;;;7.80;3.83;;;;;;;;;;5031094;28;20471;-67
2023/08/21 05:14:58;;;;;;;8.03;3.60;;;20.80;99.90;;;;;;5034761;28;20485;-66
2023/08/21 05:17:26;;;;;;;9.30;3.33;;;20.90;99.90;;;;;;5038766;28;20483;-66
2023/08/21 05:19:53;;;;;;;7.90;3.90;;;20.90;99.90;;;;;;5037263;28;20486;-66
2023/08/21 05:22:21;;;;;;;2.97;2.60;;;20.90;99.90;;;;;;5033795;28;20551;-66
2023/08/21 05:24:48;;;;;;;4.10;3.70;;;20.90;99.90;;;;;;5037210;28;20848;-66
2023/08/21 05:27:15;;;;;;;3.57;2.77;;;21.00;99.90;;;;;;5036608;28;20579;-67
2023/08/21 05:29:42;;;;;;;4.73;2.60;;;20.90;99.90;;;;;;5034256;28;20493;-66
2023/08/21 05:32:09;;;;;;;7.47;3.37;;;20.90;99.90;;;;;;5034328;28;20479;-66
2023/08/21 05:34:36;;;;;;;4.60;3.60;;;20.90;99.90;;;;;;5033176;28;20488;-66
2023/08/21 05:37:03;;;;;;;8.33;3.70;;;21.00;99.90;;;;;;5032880;28;20491;-66
2023/08/21 05:39:32;;;;;;;4.60;3.90;;;21.00;99.90;;;;;;5036394;28;20486;-66
2023/08/21 05:41:59;;;;;;;4.53;4.13;;;21.10;99.90;;;;;;5037270;28;20589;-66
2023/08/21 05:44:26;;;;;;;4.10;3.70;;;21.10;99.90;;;;;;5036465;28;20846;-67
2023/08/21 05:46:53;;;;;;;4.93;3.73;;;21.10;99.90;;;;;;5033584;28;20479;-67
2023/08/21 05:49:19;;;;;;;5.83;4.40;;;21.10;99.90;;;;;;5032539;28;20511;-67
2023/08/21 05:51:46;;;;;;;6.40;5.07;;;21.20;99.90;;;;;;5035379;28;20486;-66
2023/08/21 05:54:13;;;;;;;6.00;4.73;;;21.30;99.90;;;;;;5028754;28;20491;-66
2023/08/21 05:56:41;;;;;;;6.03;4.37;;;21.30;99.90;;;;;;5026205;28;21089;-66
2023/08/21 05:59:11;;;;;;;9.00;5.30;;;21.40;99.90;;;;;;5033428;28;20565;-67
2023/08/21 06:01:38;;;;;;;6.30;4.60;;;21.40;99.90;;;;;;5034704;28;20483;-67
2023/08/21 06:04:05;;;;;;;8.20;5.30;;;21.60;99.90;;;;;;5032368;28;20490;-66
2023/08/21 06:06:32;;;;;;;8.87;5.37;;;21.70;99.90;;;;;;5033058;28;20606;-67
2023/08/21 06:08:58;;;;;;;7.83;4.83;;;21.70;99.90;;;;;;5032564;28;20555;-66
2023/08/21 06:11:25;;;;;;;14.20;5.50;;;21.70;99.90;;;;;;5032743;28;20554;-66
2023/08/21 06:13:54;;;;;;;16.20;5.27;;;21.80;99.90;;;;;;5034266;28;20891;-67
2023/08/21 06:16:21;;;;;;;10.50;4.80;;;22.00;99.90;;;;;;5035473;28;20875;-66
2023/08/21 06:18:48;;;;;;;17.40;7.03;;;22.10;99.90;;;;;;5030478;28;20507;-66
2023/08/21 06:21:14;;;;;;;11.10;7.03;;;22.10;99.90;;;;;;5033373;28;20555;-66
2023/08/21 06:23:41;;;;;;;6.33;5.70;;;22.20;99.90;;;;;;5032421;28;20490;-67
2023/08/21 06:26:08;;;;;;;7.33;5.93;;;22.30;99.90;;;;;;5027203;28;20878;-67
2023/08/21 06:28:35;;;;;;;11.10;6.80;;;22.40;99.90;;;;;;5024294;28;20856;-66
2023/08/21 06:31:07;;;;;;;10.03;6.80;;;22.60;99.90;;;;;;5035531;28;20486;-66
2023/08/21 06:33:34;;;;;;;12.87;7.23;;;22.70;99.90;;;;;;5025337;28;20516;-66
2023/08/21 06:36:01;;;;;;;14.07;7.43;;;22.90;99.90;;;;;;5035683;28;20468;-66
2023/08/21 06:38:27;;;;;;;9.37;7.20;;;22.90;99.90;;;;;;5032326;28;20573;-66
2023/08/21 06:40:54;;;;;;;9.77;7.73;;;23.20;99.90;;;;;;5031831;28;20763;-66
2023/08/21 06:43:22;;;;;;;12.93;8.37;;;23.40;99.90;;;;;;5031404;28;20491;-66
2023/08/21 06:45:48;;;;;;;9.90;7.97;;;23.70;99.90;;;;;;5032748;28;20492;-65
2023/08/21 06:48:18;;;;;;;11.57;8.07;;;24.00;99.90;;;;;;5035939;28;20570;-72
2023/08/21 06:50:45;;;;;;;10.87;8.00;;;24.00;99.90;;;;;;5036438;28;20546;-69
2023/08/21 06:53:12;;;;;;;8.13;7.30;;;24.40;99.90;;;;;;5034649;28;21035;-70
2023/08/21 06:55:39;;;;;;;12.47;8.57;;;24.50;99.90;;;;;;5031813;28;20587;-70
2023/08/21 06:58:05;;;;;;;13.37;9.27;;;24.60;99.90;;;;;;5029134;28;20491;-70
2023/08/21 07:00:32;;;;;;;8.43;7.33;;;25.00;99.90;;;;;;5035958;28;20443;-69
2023/08/21 07:02:59;;;;;;;11.20;7.93;;;25.30;99.90;;;;;;5035292;28;20560;-69
2023/08/21 07:05:27;;;;;;;9.00;7.67;;;26.10;99.90;;;;;;5026790;28;20473;-69
2023/08/21 07:07:55;;;;;;;11.57;7.33;;;26.40;99.90;;;;;;5035781;28;20614;-70
2023/08/21 07:10:22;;;;;;;10.77;8.43;;;26.50;99.90;;;;;;5035280;28;20509;-69
2023/08/21 07:12:49;;;;;;;8.33;7.10;;;27.00;99.90;;;;;;5031402;28;21821;-68
2023/08/21 07:15:16;;;;;;;8.67;7.07;;;27.20;99.90;;;;;;5031998;28;21149;-68
2023/08/21 07:17:43;;;;;;;10.13;7.17;;;27.40;99.90;;;;;;5034714;28;20463;-69
2023/08/21 07:20:10;;;;;;;7.23;6.63;;;27.70;99.90;;;;;;5035473;28;20486;-68
2023/08/21 07:22:39;;;;;;;9.70;6.60;;;28.00;99.90;;;;;;5035681;28;20893;-67
2023/08/21 07:25:07;;;;;;;9.10;7.30;;;28.20;99.90;;;;;;5029547;28;20558;-68
2023/08/21 07:27:34;;;;;;;9.67;7.40;;;28.30;99.90;;;;;;5033669;28;20459;-68
2023/08/21 07:30:00;;;;;;;12.30;6.93;;;28.50;99.90;;;;;;5024310;28;20706;-68
2023/08/21 07:32:27;;;;;;;10.30;7.40;;;28.50;99.90;;;;;;5040559;28;20565;-68
2023/08/21 07:34:55;;;;;;;9.53;7.50;;;28.80;99.90;;;;;;5032671;28;20479;-70
2023/08/21 07:37:21;;;;;;;63.70;10.17;;;29.00;99.90;;;;;;5033188;28;20952;-69
2023/08/21 07:39:50;;;;;;;11.70;7.13;;;29.10;99.90;;;;;;5028715;28;21055;-70
2023/08/21 07:42:17;;;;;;;8.90;7.23;;;29.20;99.90;;;;;;5034501;28;20559;-68
2023/08/21 07:44:45;;;;;;;11.97;8.50;;;29.30;99.90;;;;;;5025871;28;20830;-70
2023/08/21 07:47:12;;;;;;;32.43;8.73;;;29.50;99.90;;;;;;5034893;28;20764;-70
2023/08/21 07:49:38;;;;;;;104.23;13.63;;;29.60;99.90;;;;;;5033345;28;20531;-68
2023/08/21 07:52:06;;;;;;;11.93;6.60;;;29.70;99.90;;;;;;5033116;28;20561;-69
2023/08/21 07:54:33;;;;;;;10.10;7.73;;;29.90;99.90;;;;;;5034057;28;21022;-68
2023/08/21 07:57:01;;;;;;;11.80;7.80;;;30.00;99.90;;;;;;5031239;28;20544;-67
2023/08/21 07:59:28;;;;;;;9.33;6.60;;;30.10;99.90;;;;;;5028768;28;20488;-68
2023/08/21 08:01:55;;;;;;;11.80;7.97;;;30.30;99.90;;;;;;5032041;28;20568;-69
2023/08/21 08:04:22;;;;;;;7.63;6.83;;;30.30;99.90;;;;;;5030520;28;21151;-69
2023/08/21 08:06:49;;;;;;;10.30;7.10;;;30.60;99.90;;;;;;5036760;28;20486;-70
2023/08/21 08:09:16;;;;;;;9.83;7.73;;;30.70;99.90;;;;;;5031826;28;20555;-67
2023/08/21 08:11:43;;;;;;;8.00;6.60;;;;;;;;;;5026611;28;20494;-70
2023/08/21 08:14:12;;;;;;;11.70;7.20;;;31.00;98.80;;;;;;5038999;28;20444;-70
2023/08/21 08:16:39;;;;;;;9.37;7.60;;;31.20;99.20;;;;;;5033794;28;20559;-71
2023/08/21 08:19:05;;;;;;;8.13;7.33;;;31.20;98.80;;;;;;5029096;28;20482;-68
2023/08/21 08:21:32;;;;;;;8.53;7.60;;;31.50;99.10;;;;;;5025385;28;20499;-70
2023/08/21 08:24:00;;;;;;;9.23;6.60;;;31.50;98.90;;;;;;5019278;28;20554;-69
2023/08/21 08:26:27;;;;;;;10.53;7.50;;;31.70;99.70;;;;;;5032451;28;20446;-70
2023/08/21 08:28:54;;;;;;;8.37;6.50;;;31.90;99.40;;;;;;5019406;28;20470;-69
2023/08/21 08:31:23;;;;;;;9.83;7.00;;;32.30;98.90;;;;;;5029258;28;20917;-68
2023/08/21 08:33:50;;;;;;;14.23;6.00;;;32.40;98.40;;;;;;5018116;28;20447;-71
2023/08/21 08:36:18;;;;;;;7.10;6.40;;;32.60;98.70;;;;;;5019197;28;20763;-68
2023/08/21 08:38:45;;;;;;;6.23;5.53;;;32.80;97.60;;;;;;5018079;28;20479;-69
2023/08/21 08:41:21;;;;;;;7.90;6.30;;;32.90;97.10;;;;;;5023424;28;20529;-68
2023/08/21 08:43:49;;;;;;;6.87;6.23;;;33.00;97.10;;;;;;5030464;28;20522;-71
2023/08/21 08:46:16;;;;;;;7.83;6.50;;;33.10;96.40;;;;;;5029820;28;20534;-67
2023/08/21 08:48:44;;;;;;;7.83;6.50;;;33.30;96.90;;;;;;5029794;28;20451;-70
2023/08/21 08:51:12;;;;;;;11.57;5.87;;;33.50;96.60;;;;;;5028963;28;20486;-68
2023/08/21 08:53:39;;;;;;;6.30;5.00;;;33.50;95.30;;;;;;5029397;28;20555;-68
2023/08/21 08:56:06;;;;;;;6.27;4.63;;;33.60;94.10;;;;;;5027261;28;21029;-71
2023/08/21 08:58:34;;;;;;;6.70;5.20;;;33.60;94.50;;;;;;5028592;28;20472;-70
2023/08/21 09:01:00;;;;;;;6.80;5.17;;;33.80;94.20;;;;;;5023029;28;21519;-69
2023/08/21 09:03:29;;;;;;;6.87;5.20;;;33.80;94.50;;;;;;5039946;28;20471;-69
2023/08/21 09:06:00;;;;;;;4.87;4.33;;;33.80;94.80;;;;;;5031056;28;20467;-69
2023/08/21 09:08:26;;;;;;;4.70;3.97;;;33.90;93.00;;;;;;5023470;28;20892;-66
2023/08/21 09:10:55;;;;;;;5.40;3.87;;;33.90;92.60;;;;;;5034663;28;20645;-65
2023/08/21 09:13:22;;;;;;;4.93;3.77;;;;;;;;;;5031058;28;20995;-67
2023/08/21 09:15:54;;;;;;;8.17;4.40;;;34.00;93.10;;;;;;5029400;28;20480;-66
2023/08/21 09:18:21;;;;;;;4.10;3.70;;;34.00;92.60;;;;;;5029248;28;22233;-66
2023/08/21 09:20:49;;;;;;;6.47;4.00;;;34.10;91.30;;;;;;5030658;28;20475;-66
2023/08/21 09:23:18;;;;;;;5.83;4.30;;;34.00;92.10;;;;;;5029162;28;20718;-66
2023/08/21 09:25:47;;;;;;;4.03;3.50;;;34.10;93.30;;;;;;5031016;28;20546;-65
2023/08/21 09:28:15;;;;;;;4.93;3.37;;;34.20;92.60;;;;;;5029014;28;20483;-66
2023/08/21 09:30:46;;;;;;;6.90;3.40;;;34.40;91.50;;;;;;5029420;28;20541;-66
2023/08/21 09:33:13;;;;;;;12.30;3.67;;;34.50;91.00;;;;;;5027755;28;20487;-65
2023/08/21 09:35:41;;;;;;;4.37;3.07;;;34.50;91.90;;;;;;5031530;28;20567;-66
2023/08/21 09:38:10;;;;;;;3.70;2.90;;;34.60;91.00;;;;;;5030860;28;20479;-65
2023/08/21 09:40:40;;;;;;;3.67;2.93;;;34.60;91.40;;;;;;5033014;28;20455;-66
2023/08/21 09:43:10;;;;;;;4.07;2.37;;;34.60;90.40;;;;;;5030984;28;20514;-65
2023/08/21 09:45:36;;;;;;;2.93;2.47;;;34.80;89.70;;;;;;5029808;28;20476;-66
2023/08/21 09:48:05;;;;;;;4.60;2.93;;;34.80;86.80;;;;;;5029587;28;20471;-65
2023/08/21 09:50:33;;;;;;;5.57;3.30;;;34.80;90.00;;;;;;5032821;28;20593;-65
2023/08/21 09:53:00;;;;;;;3.33;2.90;;;34.80;90.50;;;;;;5032336;28;20507;-66
2023/08/21 09:55:29;;;;;;;3.10;2.67;;;34.70;88.70;;;;;;5033984;28;20476;-66
2023/08/21 09:58:00;;;;;;;4.70;2.53;;;34.70;90.20;;;;;;5033162;28;20449;-67
2023/08/21 10:00:34;;;;;;;4.70;1.70;;;34.80;82.60;;;;;;5023250;28;20479;-66
2023/08/21 10:03:05;;;;;;;3.57;1.90;;;34.80;82.80;;;;;;5012847;28;20495;-65
2023/08/21 10:05:33;;;;;;;5.17;2.67;;;34.60;80.30;;;;;;5019469;28;21050;-66
2023/08/21 10:08:02;;;;;;;3.93;2.83;;;34.50;84.30;;;;;;5026152;28;20645;-65
2023/08/21 10:10:31;;;;;;;3.53;2.70;;;34.30;85.00;;;;;;5037988;28;20484;-66
2023/08/21 10:13:00;;;;;;;4.63;2.60;;;34.40;85.10;;;;;;5032842;28;20562;-65
2023/08/21 10:15:29;;;;;;;3.17;2.87;;;34.30;83.90;;;;;;5030930;28;20556;-65
2023/08/21 10:17:57;;;;;;;3.97;2.80;;;34.30;84.20;;;;;;5028771;28;21049;-65
2023/08/21 10:20:25;;;;;;;4.20;3.00;;;34.10;87.40;;;;;;5027707;28;20480;-71
2023/08/21 10:22:55;;;;;;;4.00;2.90;;;34.30;86.70;;;;;;5028490;28;20919;-71
2023/08/21 10:25:23;;;;;;;5.30;2.20;;;34.40;89.10;;;;;;5027094;28;20479;-68
2023/08/21 10:27:54;;;;;;;8.60;3.17;;;34.40;84.20;;;;;;5031668;28;20503;-72
2023/08/21 10:30:24;;;;;;;4.77;3.10;;;34.50;87.00;;;;;;5026052;28;20476;-71
2023/08/21 10:32:52;;;;;;;2.97;2.67;;;34.50;88.20;;;;;;5028266;28;21441;-70
2023/08/21 10:35:21;;;;;;;3.07;2.47;;;34.60;85.70;;;;;;5029650;28;21037;-70
2023/08/21 10:38:08;;;;;;;3.30;3.00;;;34.70;88.20;;;;;;5030351;28;20547;-72
2023/08/21 10:40:36;;;;;;;3.23;2.93;;;35.00;89.00;;;;;;5027752;28;21276;-69
2023/08/21 10:43:03;;;;;;;4.43;2.43;;;34.80;84.30;;;;;;5029645;28;20761;-70
2023/08/21 10:45:32;;;;;;;5.10;3.20;;;34.60;84.60;;;;;;5027318;28;20570;-69
2023/08/21 10:47:59;;;;;;;4.37;2.83;;;34.40;86.40;;;;;;5028775;28;20564;-70
2023/08/21 10:50:26;;;;;;;4.77;3.00;;;34.30;85.40;;;;;;5029712;28;20571;-70
2023/08/21 10:52:54;;;;;;;2.63;2.43;;;34.20;84.60;;;;;;5032142;28;21222;-71
2023/08/21 10:55:21;;;;;;;3.60;3.13;;;34.30;89.50;;;;;;5028124;28;20563;-69
2023/08/21 10:57:49;;;;;;;2.70;2.47;;;34.10;85.00;;;;;;5029543;28;20480;-71
2023/08/21 11:00:17;;;;;;;3.80;3.00;;;34.10;87.70;;;;;;5029865;28;21187;-69
2023/08/21 11:02:47;;;;;;;2.87;2.57;;;34.10;86.10;;;;;;5030353;28;20473;-70
2023/08/21 11:05:15;;;;;;;3.53;2.70;;;34.10;88.90;;;;;;5030624;28;20468;-71
2023/08/21 11:07:44;;;;;;;4.30;2.57;;;34.00;84.40;;;;;;5031921;28;20923;-72
2023/08/21 11:10:14;;;;;;;3.93;3.10;;;34.10;84.90;;;;;;5029187;28;20480;-70
2023/08/21 11:12:50;;;;;;;4.33;2.97;;;34.10;85.10;;;;;;5029893;28;20446;-70
2023/08/21 11:15:18;;;;;;;3.90;2.60;;;;;;;;;;5019418;28;20479;-70
2023/08/21 11:17:54;;;;;;;4.40;2.80;;;34.50;85.90;;;;;;5040954;28;20480;-70
2023/08/21 11:20:21;;;;;;;3.10;2.80;;;34.70;89.30;;;;;;5028696;28;20499;-73
2023/08/21 11:22:49;;;;;;;4.77;2.60;;;34.60;85.40;;;;;;5028154;28;20488;-70
2023/08/21 11:25:16;;;;;;;10.20;3.87;;;34.60;84.20;;;;;;5023971;28;20467;-70
2023/08/21 11:27:43;;;;;;;5.40;3.30;;;34.80;84.30;;;;;;5023962;28;20872;-71
2023/08/21 11:30:14;;;;;;;3.90;3.50;;;34.70;86.70;;;;;;5021026;28;20655;-66
2023/08/21 11:32:41;;;;;;;3.43;3.10;;;34.80;89.50;;;;;;5016310;28;20509;-65
2023/08/21 11:35:10;;;;;;;2.83;2.53;;;34.90;85.00;;;;;;5015478;28;20941;-66
2023/08/21 11:37:45;;;;;;;7.83;3.47;;;35.00;84.60;;;;;;5026598;28;20555;-65
2023/08/21 11:40:13;;;;;;;2.27;2.03;;;34.60;80.90;;;;;;5017393;28;20810;-66
2023/08/21 11:42:40;;;;;;;6.67;3.13;;;34.60;84.60;;;;;;5026818;28;20853;-66
2023/08/21 11:45:10;;;;;;;2.97;2.30;;;34.70;84.90;;;;;;5025579;28;20890;-66
2023/08/21 11:47:38;;;;;;;2.83;2.63;;;;;;;;;;5025679;28;20478;-65
2023/08/21 11:50:06;;;;;;;2.73;2.30;;;34.60;81.80;;;;;;5027454;28;20909;-65
2023/08/21 11:52:38;;;;;;;3.13;2.83;;;34.50;82.20;;;;;;5026312;28;20550;-66
2023/08/21 11:55:09;;;;;;;3.37;2.50;;;34.60;81.80;;;;;;5024296;28;20465;-66
2023/08/21 11:57:36;;;;;;;2.50;2.30;;;34.60;85.20;;;;;;5023893;28;20493;-65
2023/08/21 12:00:05;;;;;;;3.60;2.50;;;34.60;81.10;;;;;;5028099;28;20562;-66
2023/08/21 12:02:32;;;;;;;3.60;2.63;;;34.60;82.20;;;;;;5025918;28;21182;-65
2023/08/21 12:05:04;;;;;;;3.20;2.70;;;34.60;87.70;;;;;;5022798;28;20465;-66
2023/08/21 12:07:34;;;;;;;4.33;2.93;;;34.70;81.20;;;;;;5041298;28;20533;-67
2023/08/21 12:10:01;;;;;;;4.00;2.70;;;34.70;81.50;;;;;;5028421;28;20588;-65
2023/08/21 12:12:28;;;;;;;5.30;2.83;;;34.80;85.80;;;;;;5027702;28;20512;-67
2023/08/21 12:14:55;;;;;;;4.27;2.63;;;35.00;85.70;;;;;;5028687;28;20874;-66
2023/08/21 12:17:23;;;;;;;5.30;2.60;;;35.10;81.90;;;;;;5025674;28;20472;-66
2023/08/21 12:19:50;;;;;;;2.87;1.83;;;35.20;86.00;;;;;;5027049;28;20447;-65
2023/08/21 12:22:17;;;;;;;2.93;2.00;;;35.60;86.00;;;;;;5024610;28;20792;-66
2023/08/21 12:24:46;;;;;;;3.33;2.43;;;35.70;84.90;;;;;;5029214;28;20539;-66
2023/08/21 12:27:13;;;;;;;2.67;2.40;;;35.80;82.50;;;;;;5028414;28;20491;-66
2023/08/21 12:29:40;;;;;;;4.03;2.63;;;35.80;82.30;;;;;;5027757;28;20472;-65
2023/08/21 12:32:08;;;;;;;8.53;2.50;;;35.90;86.30;;;;;;5023789;28;20477;-66
2023/08/21 12:34:35;;;;;;;3.63;2.80;;;36.00;83.70;;;;;;5027287;28;20488;-65
2023/08/21 12:37:03;;;;;;;2.70;2.50;;;36.30;84.40;;;;;;5026819;28;20592;-66
2023/08/21 12:39:30;;;;;;;4.30;2.70;;;36.70;83.40;;;;;;5019816;28;20486;-71
2023/08/21 12:41:58;;;;;;;10.87;3.40;;;36.80;80.90;;;;;;5022924;28;20568;-72
2023/08/21 12:44:25;;;;;;;3.07;2.43;;;36.80;80.10;;;;;;5024502;28;20453;-71
2023/08/21 12:46:52;;;;;;;3.03;2.70;;;36.50;79.60;;;;;;5026457;28;20468;-71
2023/08/21 12:49:20;;;;;;;3.73;3.40;;;35.90;82.60;;;;;;5025274;28;20503;-72
2023/08/21 12:51:47;;;;;;;2.77;2.53;;;35.80;84.30;;;;;;5016177;28;20488;-73